sensor_id;sensor_type;location;lat;lon;timestamp;pressure;altitude;pressure_sealevel;temperature;humidity
56944;BME280;42848;42.524;12.052;2022-07-19T00:00:48;97052.09;;;26.50;74.80
56944;BME280;42848;42.524;12.052;2022-07-19T00:03:15;97035.38;;;26.50;74.62
56944;BME280;42848;42.524;12.052;2022-07-19T00:05:45;97044.00;;;26.63;74.10
56944;BME280;42848;42.524;12.052;2022-07-19T00:08:11;97037.66;;;26.59;74.13
56944;BME280;42848;42.524;12.052;2022-07-19T00:10:37;97044.41;;;26.27;72.81
56944;BME280;42848;42.524;12.052;2022-07-19T00:13:03;97041.16;;;26.32;71.39
56944;BME280;42848;42.524;12.052;2022-07-19T00:15:29;97042.78;;;26.30;71.12
56944;BME280;42848;42.524;12.052;2022-07-19T00:17:54;97038.41;;;26.29;71.08
56944;BME280;42848;42.524;12.052;2022-07-19T00:20:22;97038.38;;;25.98;73.05
56944;BME280;42848;42.524;12.052;2022-07-19T00:22:48;97038.56;;;25.80;73.38
56944;BME280;42848;42.524;12.052;2022-07-19T00:25:14;97042.06;;;26.22;72.15
56944;BME280;42848;42.524;12.052;2022-07-19T00:27:40;97039.97;;;26.33;71.26
56944;BME280;42848;42.524;12.052;2022-07-19T00:30:08;97037.38;;;25.78;73.92
56944;BME280;42848;42.524;12.052;2022-07-19T00:32:34;97037.41;;;25.74;74.64
56944;BME280;42848;42.524;12.052;2022-07-19T00:35:00;97031.13;;;25.63;75.23
56944;BME280;42848;42.524;12.052;2022-07-19T00:37:26;97035.47;;;25.71;74.48
56944;BME280;42848;42.524;12.052;2022-07-19T00:39:51;97041.78;;;25.75;74.01
56944;BME280;42848;42.524;12.052;2022-07-19T00:42:18;97032.28;;;25.66;74.97
56944;BME280;42848;42.524;12.052;2022-07-19T00:44:44;97030.44;;;25.52;74.98
56944;BME280;42848;42.524;12.052;2022-07-19T00:47:10;97022.91;;;25.52;74.10
56944;BME280;42848;42.524;12.052;2022-07-19T00:49:36;97023.22;;;25.58;72.36
56944;BME280;42848;42.524;12.052;2022-07-19T00:52:03;97028.94;;;25.89;70.90
56944;BME280;42848;42.524;12.052;2022-07-19T00:54:30;97025.22;;;25.61;70.67
56944;BME280;42848;42.524;12.052;2022-07-19T00:57:00;97024.19;;;25.86;69.17
56944;BME280;42848;42.524;12.052;2022-07-19T00:59:27;97030.94;;;26.22;67.22
56944;BME280;42848;42.524;12.052;2022-07-19T01:01:53;97027.56;;;25.63;69.36
56944;BME280;42848;42.524;12.052;2022-07-19T01:04:21;97027.97;;;25.61;69.11
56944;BME280;42848;42.524;12.052;2022-07-19T01:06:47;97025.38;;;25.40;69.66
56944;BME280;42848;42.524;12.052;2022-07-19T01:09:13;97020.50;;;25.51;69.21
56944;BME280;42848;42.524;12.052;2022-07-19T01:11:39;97029.25;;;25.49;68.69
56944;BME280;42848;42.524;12.052;2022-07-19T01:14:05;97026.84;;;25.55;66.92
56944;BME280;42848;42.524;12.052;2022-07-19T01:16:31;97028.69;;;25.69;66.33
56944;BME280;42848;42.524;12.052;2022-07-19T01:18:57;97023.38;;;25.89;66.00
56944;BME280;42848;42.524;12.052;2022-07-19T01:21:25;97026.75;;;26.07;65.08
56944;BME280;42848;42.524;12.052;2022-07-19T01:23:51;97028.72;;;25.65;65.53
56944;BME280;42848;42.524;12.052;2022-07-19T01:26:17;97025.09;;;25.75;64.97
56944;BME280;42848;42.524;12.052;2022-07-19T01:28:44;97031.44;;;25.28;66.04
56944;BME280;42848;42.524;12.052;2022-07-19T01:31:10;97022.97;;;25.42;65.17
56944;BME280;42848;42.524;12.052;2022-07-19T01:33:44;97024.50;;;25.50;64.36
56944;BME280;42848;42.524;12.052;2022-07-19T01:36:10;97030.66;;;25.23;64.96
56944;BME280;42848;42.524;12.052;2022-07-19T01:38:36;97023.81;;;25.39;64.53
56944;BME280;42848;42.524;12.052;2022-07-19T01:41:03;97019.03;;;25.39;64.22
56944;BME280;42848;42.524;12.052;2022-07-19T01:43:29;97015.19;;;25.22;64.84
56944;BME280;42848;42.524;12.052;2022-07-19T01:45:55;97017.50;;;25.35;65.26
56944;BME280;42848;42.524;12.052;2022-07-19T01:48:21;97011.69;;;25.15;66.35
56944;BME280;42848;42.524;12.052;2022-07-19T01:50:46;97023.06;;;25.35;66.24
56944;BME280;42848;42.524;12.052;2022-07-19T01:53:12;97024.75;;;25.18;66.86
56944;BME280;42848;42.524;12.052;2022-07-19T01:55:38;97023.53;;;25.22;66.50
56944;BME280;42848;42.524;12.052;2022-07-19T01:58:04;97026.19;;;25.37;65.72
56944;BME280;42848;42.524;12.052;2022-07-19T02:00:31;97019.06;;;25.36;65.63
56944;BME280;42848;42.524;12.052;2022-07-19T02:02:56;97015.19;;;25.22;65.90
56944;BME280;42848;42.524;12.052;2022-07-19T02:05:22;97010.88;;;25.14;65.96
56944;BME280;42848;42.524;12.052;2022-07-19T02:07:48;97011.28;;;25.16;65.31
56944;BME280;42848;42.524;12.052;2022-07-19T02:10:14;97009.72;;;25.15;64.85
56944;BME280;42848;42.524;12.052;2022-07-19T02:12:39;97012.03;;;25.20;64.86
56944;BME280;42848;42.524;12.052;2022-07-19T02:15:06;97006.97;;;25.08;64.93
56944;BME280;42848;42.524;12.052;2022-07-19T02:17:32;97007.72;;;25.12;64.31
56944;BME280;42848;42.524;12.052;2022-07-19T02:19:58;97008.84;;;25.26;63.64
56944;BME280;42848;42.524;12.052;2022-07-19T02:22:24;97004.16;;;25.15;62.94
56944;BME280;42848;42.524;12.052;2022-07-19T02:24:49;97009.72;;;25.15;62.12
56944;BME280;42848;42.524;12.052;2022-07-19T02:27:15;97005.72;;;25.16;62.35
56944;BME280;42848;42.524;12.052;2022-07-19T02:29:41;97006.19;;;25.04;62.29
56944;BME280;42848;42.524;12.052;2022-07-19T02:32:07;97013.75;;;25.04;62.13
56944;BME280;42848;42.524;12.052;2022-07-19T02:34:33;97014.53;;;25.08;61.43
56944;BME280;42848;42.524;12.052;2022-07-19T02:36:59;97016.53;;;25.04;61.68
56944;BME280;42848;42.524;12.052;2022-07-19T02:39:25;97015.72;;;25.03;61.66
56944;BME280;42848;42.524;12.052;2022-07-19T02:41:51;97015.28;;;25.12;59.97
56944;BME280;42848;42.524;12.052;2022-07-19T02:44:17;97013.66;;;25.14;59.31
56944;BME280;42848;42.524;12.052;2022-07-19T02:46:42;97019.28;;;25.07;58.20
56944;BME280;42848;42.524;12.052;2022-07-19T02:49:08;97021.72;;;24.94;57.97
56944;BME280;42848;42.524;12.052;2022-07-19T02:51:34;97014.59;;;24.93;57.77
56944;BME280;42848;42.524;12.052;2022-07-19T02:54:00;97025.59;;;25.11;57.61
56944;BME280;42848;42.524;12.052;2022-07-19T02:56:25;97022.56;;;24.84;58.64
56944;BME280;42848;42.524;12.052;2022-07-19T02:58:51;97024.84;;;25.04;58.18
56944;BME280;42848;42.524;12.052;2022-07-19T03:01:17;97016.94;;;24.99;58.06
56944;BME280;42848;42.524;12.052;2022-07-19T03:03:43;97019.31;;;25.00;58.07
56944;BME280;42848;42.524;12.052;2022-07-19T03:06:18;97021.81;;;24.80;59.35
56944;BME280;42848;42.524;12.052;2022-07-19T03:08:44;97020.69;;;24.71;60.78
56944;BME280;42848;42.524;12.052;2022-07-19T03:11:10;97015.59;;;24.58;61.38
56944;BME280;42848;42.524;12.052;2022-07-19T03:13:36;97015.22;;;24.56;61.65
56944;BME280;42848;42.524;12.052;2022-07-19T03:16:02;97019.56;;;24.57;61.49
56944;BME280;42848;42.524;12.052;2022-07-19T03:18:28;97014.47;;;24.45;61.87
56944;BME280;42848;42.524;12.052;2022-07-19T03:20:54;97015.28;;;24.42;62.14
56944;BME280;42848;42.524;12.052;2022-07-19T03:23:21;97011.72;;;24.38;62.34
56944;BME280;42848;42.524;12.052;2022-07-19T03:25:47;97009.75;;;24.28;63.10
56944;BME280;42848;42.524;12.052;2022-07-19T03:28:13;97016.44;;;24.48;62.80
56944;BME280;42848;42.524;12.052;2022-07-19T03:30:39;97015.72;;;24.23;63.26
56944;BME280;42848;42.524;12.052;2022-07-19T03:33:04;97018.19;;;24.06;64.02
56944;BME280;42848;42.524;12.052;2022-07-19T03:35:30;97018.94;;;24.10;64.07
56944;BME280;42848;42.524;12.052;2022-07-19T03:37:56;97023.66;;;24.21;61.74
56944;BME280;42848;42.524;12.052;2022-07-19T03:40:22;97010.97;;;24.20;60.58
56944;BME280;42848;42.524;12.052;2022-07-19T03:42:47;97008.59;;;24.32;59.06
56944;BME280;42848;42.524;12.052;2022-07-19T03:45:13;97014.63;;;24.06;56.79
56944;BME280;42848;42.524;12.052;2022-07-19T03:47:39;97019.75;;;24.07;54.72
56944;BME280;42848;42.524;12.052;2022-07-19T03:50:05;97017.38;;;24.09;54.24
56944;BME280;42848;42.524;12.052;2022-07-19T03:52:31;97016.56;;;24.09;52.95
56944;BME280;42848;42.524;12.052;2022-07-19T03:54:56;97020.50;;;24.19;50.82
56944;BME280;42848;42.524;12.052;2022-07-19T03:57:22;97026.78;;;24.30;49.34
56944;BME280;42848;42.524;12.052;2022-07-19T03:59:48;97018.09;;;24.21;49.04
56944;BME280;42848;42.524;12.052;2022-07-19T04:02:13;97027.25;;;24.18;48.49
56944;BME280;42848;42.524;12.052;2022-07-19T04:04:39;97027.59;;;24.27;48.55
56944;BME280;42848;42.524;12.052;2022-07-19T04:07:05;97024.44;;;24.21;47.97
56944;BME280;42848;42.524;12.052;2022-07-19T04:09:31;97028.41;;;24.24;48.12
56944;BME280;42848;42.524;12.052;2022-07-19T04:11:56;97029.19;;;24.28;48.35
56944;BME280;42848;42.524;12.052;2022-07-19T04:14:22;97029.22;;;24.21;47.83
56944;BME280;42848;42.524;12.052;2022-07-19T04:16:47;97031.56;;;24.22;48.05
56944;BME280;42848;42.524;12.052;2022-07-19T04:19:13;97032.00;;;24.17;47.67
56944;BME280;42848;42.524;12.052;2022-07-19T04:21:39;97030.03;;;24.18;47.18
56944;BME280;42848;42.524;12.052;2022-07-19T04:24:05;97039.09;;;24.29;46.35
56944;BME280;42848;42.524;12.052;2022-07-19T04:26:30;97038.69;;;24.30;46.57
56944;BME280;42848;42.524;12.052;2022-07-19T04:28:56;97042.66;;;24.29;45.93
56944;BME280;42848;42.524;12.052;2022-07-19T04:31:21;97043.88;;;24.25;46.08
56944;BME280;42848;42.524;12.052;2022-07-19T04:33:47;97045.47;;;24.33;45.44
56944;BME280;42848;42.524;12.052;2022-07-19T04:36:13;97050.97;;;24.36;45.51
56944;BME280;42848;42.524;12.052;2022-07-19T04:38:38;97050.56;;;24.45;44.88
56944;BME280;42848;42.524;12.052;2022-07-19T04:41:04;97046.63;;;24.32;45.23
56944;BME280;42848;42.524;12.052;2022-07-19T04:43:30;97053.78;;;24.33;44.73
56944;BME280;42848;42.524;12.052;2022-07-19T04:45:55;97048.19;;;24.40;44.89
56944;BME280;42848;42.524;12.052;2022-07-19T04:48:26;97059.28;;;24.40;44.57
56944;BME280;42848;42.524;12.052;2022-07-19T04:50:51;97058.88;;;24.45;44.51
56944;BME280;42848;42.524;12.052;2022-07-19T04:53:17;97052.94;;;24.43;44.53
56944;BME280;42848;42.524;12.052;2022-07-19T04:55:43;97054.88;;;24.50;45.11
56944;BME280;42848;42.524;12.052;2022-07-19T04:58:08;97055.72;;;24.43;44.94
56944;BME280;42848;42.524;12.052;2022-07-19T05:00:34;97062.03;;;24.51;44.76
56944;BME280;42848;42.524;12.052;2022-07-19T05:03:00;97052.94;;;24.39;45.53
56944;BME280;42848;42.524;12.052;2022-07-19T05:05:26;97058.44;;;24.50;44.99
56944;BME280;42848;42.524;12.052;2022-07-19T05:07:51;97057.66;;;24.53;45.34
56944;BME280;42848;42.524;12.052;2022-07-19T05:10:17;97053.59;;;24.68;46.04
56944;BME280;42848;42.524;12.052;2022-07-19T05:12:43;97059.56;;;24.67;45.33
56944;BME280;42848;42.524;12.052;2022-07-19T05:15:09;97064.69;;;24.68;45.02
56944;BME280;42848;42.524;12.052;2022-07-19T05:17:35;97056.00;;;24.66;44.42
56944;BME280;42848;42.524;12.052;2022-07-19T05:20:03;97052.81;;;24.72;45.01
56944;BME280;42848;42.524;12.052;2022-07-19T05:22:29;97054.78;;;24.71;44.45
56944;BME280;42848;42.524;12.052;2022-07-19T05:24:54;97063.09;;;24.75;44.82
56944;BME280;42848;42.524;12.052;2022-07-19T05:27:21;97057.47;;;24.89;45.00
56944;BME280;42848;42.524;12.052;2022-07-19T05:29:47;97061.09;;;24.79;43.90
56944;BME280;42848;42.524;12.052;2022-07-19T05:32:13;97069.78;;;24.84;43.98
56944;BME280;42848;42.524;12.052;2022-07-19T05:34:38;97066.22;;;24.87;43.16
56944;BME280;42848;42.524;12.052;2022-07-19T05:37:04;97059.44;;;24.92;43.32
56944;BME280;42848;42.524;12.052;2022-07-19T05:39:30;97070.13;;;24.97;43.34
56944;BME280;42848;42.524;12.052;2022-07-19T05:41:56;97075.59;;;25.11;43.83
56944;BME280;42848;42.524;12.052;2022-07-19T05:44:22;97075.25;;;25.06;42.84
56944;BME280;42848;42.524;12.052;2022-07-19T05:46:48;97080.41;;;25.04;42.93
56944;BME280;42848;42.524;12.052;2022-07-19T05:49:14;97088.34;;;25.02;41.97
56944;BME280;42848;42.524;12.052;2022-07-19T05:51:40;97079.25;;;24.98;41.57
56944;BME280;42848;42.524;12.052;2022-07-19T05:54:06;97078.84;;;24.99;41.84
56944;BME280;42848;42.524;12.052;2022-07-19T05:56:32;97086.03;;;24.86;41.44
56944;BME280;42848;42.524;12.052;2022-07-19T05:58:59;97082.00;;;25.05;41.74
56944;BME280;42848;42.524;12.052;2022-07-19T06:01:27;97084.34;;;25.10;41.23
56944;BME280;42848;42.524;12.052;2022-07-19T06:03:55;97077.59;;;25.11;40.74
56944;BME280;42848;42.524;12.052;2022-07-19T06:06:22;97083.88;;;25.22;40.26
56944;BME280;42848;42.524;12.052;2022-07-19T06:08:50;97081.41;;;25.31;39.84
56944;BME280;42848;42.524;12.052;2022-07-19T06:11:17;97077.06;;;25.34;40.07
56944;BME280;42848;42.524;12.052;2022-07-19T06:13:44;97078.19;;;25.40;39.57
56944;BME280;42848;42.524;12.052;2022-07-19T06:16:10;97068.22;;;25.46;39.99
56944;BME280;42848;42.524;12.052;2022-07-19T06:18:37;97071.34;;;25.51;40.20
56944;BME280;42848;42.524;12.052;2022-07-19T06:21:05;97079.66;;;25.55;40.10
56944;BME280;42848;42.524;12.052;2022-07-19T06:23:31;97085.59;;;25.57;39.45
56944;BME280;42848;42.524;12.052;2022-07-19T06:25:57;97083.22;;;25.56;39.26
56944;BME280;42848;42.524;12.052;2022-07-19T06:28:23;97087.91;;;25.66;38.93
56944;BME280;42848;42.524;12.052;2022-07-19T06:30:49;97085.09;;;25.73;39.54
56944;BME280;42848;42.524;12.052;2022-07-19T06:33:15;97092.13;;;25.88;39.91
56944;BME280;42848;42.524;12.052;2022-07-19T06:35:41;97077.41;;;25.88;39.51
56944;BME280;42848;42.524;12.052;2022-07-19T06:38:07;97078.16;;;25.92;38.74
56944;BME280;42848;42.524;12.052;2022-07-19T06:40:32;97082.00;;;26.05;39.46
56944;BME280;42848;42.524;12.052;2022-07-19T06:42:58;97079.63;;;26.07;38.50
56944;BME280;42848;42.524;12.052;2022-07-19T06:45:24;97073.97;;;26.14;38.39
56944;BME280;42848;42.524;12.052;2022-07-19T06:47:49;97075.56;;;26.15;38.55
56944;BME280;42848;42.524;12.052;2022-07-19T06:50:17;97078.25;;;26.22;38.60
56944;BME280;42848;42.524;12.052;2022-07-19T06:52:43;97086.88;;;26.31;38.88
56944;BME280;42848;42.524;12.052;2022-07-19T06:55:09;97084.22;;;26.21;38.08
56944;BME280;42848;42.524;12.052;2022-07-19T06:57:34;97083.44;;;26.20;38.26
56944;BME280;42848;42.524;12.052;2022-07-19T07:00:00;97088.28;;;26.16;37.49
56944;BME280;42848;42.524;12.052;2022-07-19T07:02:26;97084.50;;;26.33;38.07
56944;BME280;42848;42.524;12.052;2022-07-19T07:04:52;97079.25;;;26.43;38.08
56944;BME280;42848;42.524;12.052;2022-07-19T07:07:17;97080.16;;;26.29;37.19
56944;BME280;42848;42.524;12.052;2022-07-19T07:09:43;97077.44;;;26.25;37.44
56944;BME280;42848;42.524;12.052;2022-07-19T07:12:09;97075.34;;;26.33;37.96
56944;BME280;42848;42.524;12.052;2022-07-19T07:14:35;97078.06;;;26.44;38.34
56944;BME280;42848;42.524;12.052;2022-07-19T07:17:01;97077.50;;;26.56;37.79
56944;BME280;42848;42.524;12.052;2022-07-19T07:19:26;97077.41;;;26.63;38.08
56944;BME280;42848;42.524;12.052;2022-07-19T07:21:52;97081.50;;;26.55;38.01
56944;BME280;42848;42.524;12.052;2022-07-19T07:24:18;97084.28;;;26.85;38.21
56944;BME280;42848;42.524;12.052;2022-07-19T07:26:44;97082.88;;;27.01;38.54
56944;BME280;42848;42.524;12.052;2022-07-19T07:29:09;97082.47;;;27.02;37.60
56944;BME280;42848;42.524;12.052;2022-07-19T07:31:35;97081.59;;;27.09;37.19
56944;BME280;42848;42.524;12.052;2022-07-19T07:34:02;97084.75;;;27.11;36.94
56944;BME280;42848;42.524;12.052;2022-07-19T07:36:28;97096.44;;;27.29;37.56
56944;BME280;42848;42.524;12.052;2022-07-19T07:38:54;97083.91;;;27.14;36.58
56944;BME280;42848;42.524;12.052;2022-07-19T07:41:20;97075.94;;;27.16;36.82
56944;BME280;42848;42.524;12.052;2022-07-19T07:43:45;97086.31;;;27.39;36.16
56944;BME280;42848;42.524;12.052;2022-07-19T07:46:11;97082.84;;;27.31;35.75
56944;BME280;42848;42.524;12.052;2022-07-19T07:48:37;97074.56;;;27.51;36.03
56944;BME280;42848;42.524;12.052;2022-07-19T07:51:03;97080.03;;;27.58;35.87
56944;BME280;42848;42.524;12.052;2022-07-19T07:53:28;97080.88;;;27.55;35.04
56944;BME280;42848;42.524;12.052;2022-07-19T07:55:56;97082.81;;;27.58;35.84
56944;BME280;42848;42.524;12.052;2022-07-19T07:58:21;97085.22;;;27.83;34.79
56944;BME280;42848;42.524;12.052;2022-07-19T08:00:47;97077.88;;;27.69;34.78
56944;BME280;42848;42.524;12.052;2022-07-19T08:03:13;97073.28;;;27.83;34.77
56944;BME280;42848;42.524;12.052;2022-07-19T08:05:38;97077.56;;;28.11;34.91
56944;BME280;42848;42.524;12.052;2022-07-19T08:08:05;97075.75;;;28.00;34.60
56944;BME280;42848;42.524;12.052;2022-07-19T08:10:31;97071.25;;;28.06;34.21
56944;BME280;42848;42.524;12.052;2022-07-19T08:12:59;97073.09;;;27.93;34.69
56944;BME280;42848;42.524;12.052;2022-07-19T08:15:24;97076.03;;;28.06;34.80
56944;BME280;42848;42.524;12.052;2022-07-19T08:17:50;97071.41;;;27.99;34.13
56944;BME280;42848;42.524;12.052;2022-07-19T08:20:16;97074.53;;;28.01;34.03
56944;BME280;42848;42.524;12.052;2022-07-19T08:22:41;97068.22;;;27.97;34.33
56944;BME280;42848;42.524;12.052;2022-07-19T08:25:08;97066.13;;;28.25;34.54
56944;BME280;42848;42.524;12.052;2022-07-19T08:27:34;97067.09;;;28.38;35.06
56944;BME280;42848;42.524;12.052;2022-07-19T08:30:00;97069.22;;;28.30;34.82
56944;BME280;42848;42.524;12.052;2022-07-19T08:32:26;97069.97;;;28.54;34.29
56944;BME280;42848;42.524;12.052;2022-07-19T08:34:52;97060.50;;;28.48;35.02
56944;BME280;42848;42.524;12.052;2022-07-19T08:37:18;97061.59;;;28.54;33.75
56944;BME280;42848;42.524;12.052;2022-07-19T08:39:43;97067.19;;;28.54;33.39
56944;BME280;42848;42.524;12.052;2022-07-19T08:42:09;97064.94;;;28.66;33.90
56944;BME280;42848;42.524;12.052;2022-07-19T08:44:36;97074.75;;;28.74;33.92
56944;BME280;42848;42.524;12.052;2022-07-19T08:47:05;97066.28;;;28.77;33.84
56944;BME280;42848;42.524;12.052;2022-07-19T08:49:32;97076.41;;;28.71;33.15
56944;BME280;42848;42.524;12.052;2022-07-19T08:51:58;97073.31;;;28.66;33.41
56944;BME280;42848;42.524;12.052;2022-07-19T08:54:25;97072.31;;;28.76;33.42
56944;BME280;42848;42.524;12.052;2022-07-19T08:56:51;97074.50;;;28.84;33.35
56944;BME280;42848;42.524;12.052;2022-07-19T08:59:35;97072.41;;;28.88;32.93
56944;BME280;42848;42.524;12.052;2022-07-19T09:02:01;97065.34;;;29.04;32.96
56944;BME280;42848;42.524;12.052;2022-07-19T09:04:27;97057.28;;;29.06;32.59
56944;BME280;42848;42.524;12.052;2022-07-19T09:06:57;97054.78;;;29.11;32.63
56944;BME280;42848;42.524;12.052;2022-07-19T09:09:27;97062.03;;;29.09;32.64
56944;BME280;42848;42.524;12.052;2022-07-19T09:11:55;97059.69;;;29.40;33.27
56944;BME280;42848;42.524;12.052;2022-07-19T09:16:54;97059.69;;;29.24;32.17
56944;BME280;42848;42.524;12.052;2022-07-19T09:19:22;97063.78;;;29.19;31.44
56944;BME280;42848;42.524;12.052;2022-07-19T09:21:52;97061.94;;;29.12;31.58
56944;BME280;42848;42.524;12.052;2022-07-19T09:24:19;97058.28;;;29.32;30.97
56944;BME280;42848;42.524;12.052;2022-07-19T09:27:15;97059.16;;;29.29;31.00
56944;BME280;42848;42.524;12.052;2022-07-19T09:29:46;97061.81;;;29.52;31.06
56944;BME280;42848;42.524;12.052;2022-07-19T09:32:15;97056.38;;;29.29;30.88
56944;BME280;42848;42.524;12.052;2022-07-19T09:39:47;97049.41;;;29.53;29.72
56944;BME280;42848;42.524;12.052;2022-07-19T09:42:14;97060.69;;;29.66;29.84
56944;BME280;42848;42.524;12.052;2022-07-19T09:44:41;97058.50;;;29.57;29.34
56944;BME280;42848;42.524;12.052;2022-07-19T09:47:06;97056.38;;;29.78;28.58
56944;BME280;42848;42.524;12.052;2022-07-19T09:49:32;97045.69;;;29.89;27.92
56944;BME280;42848;42.524;12.052;2022-07-19T09:51:58;97051.03;;;29.99;28.45
56944;BME280;42848;42.524;12.052;2022-07-19T09:54:28;97044.72;;;29.95;29.36
56944;BME280;42848;42.524;12.052;2022-07-19T09:56:56;97053.91;;;29.96;27.64
56944;BME280;42848;42.524;12.052;2022-07-19T09:59:23;97054.03;;;29.92;26.04
56944;BME280;42848;42.524;12.052;2022-07-19T10:01:51;97051.75;;;29.87;27.74
56944;BME280;42848;42.524;12.052;2022-07-19T10:04:19;97053.91;;;30.12;25.85
56944;BME280;42848;42.524;12.052;2022-07-19T10:06:46;97051.47;;;29.98;25.22
56944;BME280;42848;42.524;12.052;2022-07-19T10:09:15;97052.78;;;29.93;27.28
56944;BME280;42848;42.524;12.052;2022-07-19T10:11:41;97048.13;;;30.19;27.64
56944;BME280;42848;42.524;12.052;2022-07-19T10:14:07;97042.72;;;30.12;26.02
56944;BME280;42848;42.524;12.052;2022-07-19T10:20:00;97040.53;;;30.33;25.14
56944;BME280;42848;42.524;12.052;2022-07-19T10:22:11;97031.38;;;30.45;25.22
56944;BME280;42848;42.524;12.052;2022-07-19T10:24:54;97032.97;;;30.46;26.42
56944;BME280;42848;42.524;12.052;2022-07-19T10:32:34;97037.78;;;30.74;25.14
56944;BME280;42848;42.524;12.052;2022-07-19T10:35:31;97035.69;;;30.62;24.83
56944;BME280;42848;42.524;12.052;2022-07-19T10:43:20;97034.97;;;30.87;25.27
56944;BME280;42848;42.524;12.052;2022-07-19T10:51:50;97026.94;;;31.02;24.56
56944;BME280;42848;42.524;12.052;2022-07-19T10:53:56;97026.78;;;31.18;24.56
56944;BME280;42848;42.524;12.052;2022-07-19T10:56:27;97029.16;;;31.07;24.66
56944;BME280;42848;42.524;12.052;2022-07-19T10:59:00;97025.38;;;31.39;25.18
56944;BME280;42848;42.524;12.052;2022-07-19T11:01:28;97021.78;;;31.38;24.66
56944;BME280;42848;42.524;12.052;2022-07-19T11:04:24;97017.72;;;31.27;24.66
56944;BME280;42848;42.524;12.052;2022-07-19T11:06:51;97017.16;;;31.45;25.22
56944;BME280;42848;42.524;12.052;2022-07-19T11:09:18;97020.97;;;31.51;25.03
56944;BME280;42848;42.524;12.052;2022-07-19T11:11:43;97020.84;;;31.54;24.50
56944;BME280;42848;42.524;12.052;2022-07-19T11:14:09;97023.47;;;31.23;24.79
56944;BME280;42848;42.524;12.052;2022-07-19T11:16:35;97024.59;;;31.38;24.52
56944;BME280;42848;42.524;12.052;2022-07-19T11:19:06;97009.41;;;31.36;25.07
56944;BME280;42848;42.524;12.052;2022-07-19T11:21:33;97006.47;;;31.65;24.90
56944;BME280;42848;42.524;12.052;2022-07-19T11:24:01;96996.09;;;31.75;25.35
56944;BME280;42848;42.524;12.052;2022-07-19T11:26:35;97005.09;;;31.82;25.26
56944;BME280;42848;42.524;12.052;2022-07-19T11:29:01;97004.44;;;31.53;25.35
56944;BME280;42848;42.524;12.052;2022-07-19T11:31:27;97000.50;;;31.63;25.43
56944;BME280;42848;42.524;12.052;2022-07-19T11:33:55;96999.88;;;32.15;25.74
56944;BME280;42848;42.524;12.052;2022-07-19T11:36:24;96991.34;;;32.19;24.79
56944;BME280;42848;42.524;12.052;2022-07-19T11:38:54;96993.66;;;31.98;24.10
56944;BME280;42848;42.524;12.052;2022-07-19T11:41:23;96989.34;;;31.72;24.61
56944;BME280;42848;42.524;12.052;2022-07-19T11:43:57;96984.13;;;31.96;25.00
56944;BME280;42848;42.524;12.052;2022-07-19T11:46:34;96988.78;;;32.12;24.95
56944;BME280;42848;42.524;12.052;2022-07-19T11:49:05;96980.38;;;32.12;23.92
56944;BME280;42848;42.524;12.052;2022-07-19T11:51:32;96974.53;;;32.06;24.60
56944;BME280;42848;42.524;12.052;2022-07-19T11:53:59;96969.31;;;31.95;25.02
56944;BME280;42848;42.524;12.052;2022-07-19T11:56:28;96959.34;;;32.38;24.77
56944;BME280;42848;42.524;12.052;2022-07-19T11:58:56;96959.31;;;32.60;24.77
56944;BME280;42848;42.524;12.052;2022-07-19T12:01:43;96959.22;;;32.42;24.64
56944;BME280;42848;42.524;12.052;2022-07-19T12:04:12;96961.66;;;32.62;23.86
56944;BME280;42848;42.524;12.052;2022-07-19T12:06:45;96958.28;;;32.45;23.84
56944;BME280;42848;42.524;12.052;2022-07-19T12:09:17;96955.03;;;32.46;24.08
56944;BME280;42848;42.524;12.052;2022-07-19T12:11:50;96955.03;;;32.46;24.03
56944;BME280;42848;42.524;12.052;2022-07-19T12:14:22;96947.38;;;32.47;23.71
56944;BME280;42848;42.524;12.052;2022-07-19T12:16:50;96942.97;;;32.46;24.16
56944;BME280;42848;42.524;12.052;2022-07-19T12:19:34;96950.44;;;32.71;23.14
56944;BME280;42848;42.524;12.052;2022-07-19T12:22:01;96945.56;;;32.84;22.91
56944;BME280;42848;42.524;12.052;2022-07-19T12:24:28;96945.00;;;33.07;23.01
56944;BME280;42848;42.524;12.052;2022-07-19T12:27:05;96940.19;;;33.17;22.60
56944;BME280;42848;42.524;12.052;2022-07-19T12:35:05;96934.50;;;32.99;22.29
56944;BME280;42848;42.524;12.052;2022-07-19T12:37:36;96930.03;;;33.10;21.73
56944;BME280;42848;42.524;12.052;2022-07-19T12:40:06;96928.28;;;33.13;21.23
56944;BME280;42848;42.524;12.052;2022-07-19T12:42:37;96926.28;;;33.23;21.55
56944;BME280;42848;42.524;12.052;2022-07-19T12:45:22;96934.66;;;32.95;21.20
56944;BME280;42848;42.524;12.052;2022-07-19T12:47:50;96932.03;;;33.10;20.78
56944;BME280;42848;42.524;12.052;2022-07-19T12:50:37;96923.44;;;33.14;21.22
56944;BME280;42848;42.524;12.052;2022-07-19T12:53:06;96914.38;;;33.09;20.75
56944;BME280;42848;42.524;12.052;2022-07-19T12:55:34;96917.66;;;33.17;20.59
56944;BME280;42848;42.524;12.052;2022-07-19T12:58:03;96926.66;;;33.52;21.44
56944;BME280;42848;42.524;12.052;2022-07-19T13:00:30;96924.50;;;33.56;20.52
56944;BME280;42848;42.524;12.052;2022-07-19T13:02:57;96918.22;;;33.43;20.30
56944;BME280;42848;42.524;12.052;2022-07-19T13:05:24;96903.53;;;33.48;20.15
56944;BME280;42848;42.524;12.052;2022-07-19T13:07:51;96906.97;;;33.98;20.62
56944;BME280;42848;42.524;12.052;2022-07-19T13:10:17;96913.53;;;33.40;20.53
56944;BME280;42848;42.524;12.052;2022-07-19T13:12:44;96926.69;;;33.71;21.21
56944;BME280;42848;42.524;12.052;2022-07-19T13:15:11;96920.59;;;34.00;20.88
56944;BME280;42848;42.524;12.052;2022-07-19T13:17:37;96924.00;;;33.40;20.32
56944;BME280;42848;42.524;12.052;2022-07-19T13:20:04;96905.41;;;33.42;20.48
56944;BME280;42848;42.524;12.052;2022-07-19T13:22:32;96913.84;;;33.60;20.19